Terminal Aerodrome Forecast
Issued by NWS

Home | Current Version | Previous Version | Text Only | Print | Product List | Glossary On
Versions: 1 2 3 4 5 6 7 8 9 10 11 12 13 14 15 16
719
FTUS46 KMTR 250530
TAFSTS
TAF
KSTS 250530Z 2506/2606 21006KT P6SM FEW003 SCT040 BKN100
      TEMPO 2506/2510 1/2SM FG VV001
     FM251000 VRB03KT 1/4SM FG VV001
     FM251730 25004KT P6SM SCT100
     FM252100 19008KT P6SM FEW150
     FM260400 24004KT P6SM SCT150=

USA.gov is the U.S. government's official web portal to all federal, state and local government web resources and services.